Kasenga Airport


Codes: FZQG/KEC
Name: Kasenga Airport
City: Kasenga
Country: Congo [DRC]
Elevation: 3146 ft.

Photos at Kasenga Airport


   Photos courtesy of SpottingLog. You can add your own sightings and photos by signing up for a free trial today.



No photos found.

Weather at Kasenga Airport


Time (UTC)DescriptionTempratureWindCloud coverageVisibilityPressureHumidity
16-Jun-2024 03:00Clear Sky11°C4 mph, S4%10000m1018hPa59%
16-Jun-2024 06:00Few Clouds14°C4 mph, SE21%10000m1020hPa55%
16-Jun-2024 09:00Broken Clouds25°C7 mph, SE64%10000m1017hPa27%
16-Jun-2024 12:00Scattered Clouds29°C4 mph, SE48%10000m1013hPa18%
16-Jun-2024 15:00Clear Sky27°C4 mph, SE6%10000m1012hPa23%
16-Jun-2024 18:00Clear Sky18°C7 mph, SE6%10000m1016hPa39%
16-Jun-2024 21:00Clear Sky16°C7 mph, SE5%10000m1017hPa41%
17-Jun-2024 00:00Clear Sky14°C4 mph, SE2%10000m1017hPa55%
17-Jun-2024 03:00Clear Sky11°C4 mph, S1%10000m1019hPa67%
17-Jun-2024 06:00Clear Sky16°C4 mph, SE1%10000m1020hPa55%
17-Jun-2024 09:00Clear Sky26°C4 mph, SE0%10000m1018hPa28%
17-Jun-2024 12:00Clear Sky31°C2 mph, S0%10000m1013hPa19%
17-Jun-2024 15:00Clear Sky28°C2 mph, S1%10000m1012hPa24%
17-Jun-2024 18:00Clear Sky18°C4 mph, SE3%10000m1016hPa41%
17-Jun-2024 21:00Clear Sky16°C2 mph, SE6%10000m1017hPa48%
18-Jun-2024 00:00Clear Sky13°C4 mph, SE3%10000m1017hPa53%
18-Jun-2024 03:00Clear Sky12°C4 mph, S0%10000m1018hPa65%
18-Jun-2024 06:00Clear Sky17°C4 mph, SE0%10000m1019hPa55%
18-Jun-2024 09:00Clear Sky28°C4 mph, SE0%10000m1017hPa29%
18-Jun-2024 12:00Clear Sky32°C2 mph, SW0%10000m1012hPa19%
18-Jun-2024 15:00Clear Sky28°C4 mph, SW0%10000m1012hPa24%
18-Jun-2024 18:00Clear Sky19°C4 mph, SE0%10000m1015hPa40%
18-Jun-2024 21:00Clear Sky16°C4 mph, SE2%10000m1017hPa48%
19-Jun-2024 00:00Clear Sky15°C4 mph, SE1%10000m1016hPa51%
19-Jun-2024 03:00Clear Sky13°C4 mph, S0%10000m1017hPa57%
19-Jun-2024 06:00Clear Sky18°C4 mph, SE0%10000m1018hPa47%
19-Jun-2024 09:00Clear Sky29°C4 mph, SE0%10000m1015hPa26%
19-Jun-2024 12:00Clear Sky34°C0 mph, S0%10000m1011hPa18%
19-Jun-2024 15:00Scattered Clouds30°C2 mph, SW29%10000m1010hPa23%
19-Jun-2024 18:00Scattered Clouds20°C4 mph, SE48%10000m1014hPa39%
19-Jun-2024 21:00Scattered Clouds18°C2 mph, SE44%10000m1016hPa46%
20-Jun-2024 00:00Scattered Clouds16°C4 mph, SE25%10000m1016hPa51%
20-Jun-2024 03:00Scattered Clouds15°C2 mph, S47%10000m1016hPa57%
20-Jun-2024 06:00Broken Clouds20°C4 mph, SE64%10000m1018hPa47%
20-Jun-2024 09:00Scattered Clouds30°C4 mph, SE41%10000m1015hPa27%
20-Jun-2024 12:00Few Clouds34°C4 mph, SE23%10000m1011hPa20%
20-Jun-2024 15:00Few Clouds31°C4 mph, SE17%10000m1010hPa24%
20-Jun-2024 18:00Broken Clouds24°C2 mph, SE51%10000m1014hPa37%
20-Jun-2024 21:00Overcast Clouds23°C4 mph, SE88%10000m1015hPa39%
21-Jun-2024 00:00Overcast Clouds22°C4 mph, SE91%10000m1014hPa43%